sensor_id;sensor_type;location;lat;lon;timestamp;P1;durP1;ratioP1;P2;durP2;ratioP2
80322;SDS011;69636;52.372;13.610;2023-07-22T00:01:50;6.72;;;6.03;;
80322;SDS011;69636;52.372;13.610;2023-07-22T00:04:17;6.50;;;5.90;;
80322;SDS011;69636;52.372;13.610;2023-07-22T00:06:44;8.10;;;5.70;;
80322;SDS011;69636;52.372;13.610;2023-07-22T00:09:11;7.35;;;6.32;;
80322;SDS011;69636;52.372;13.610;2023-07-22T00:11:40;7.18;;;6.43;;
80322;SDS011;69636;52.372;13.610;2023-07-22T00:14:08;5.45;;;4.13;;
80322;SDS011;69636;52.372;13.610;2023-07-22T00:16:35;8.25;;;6.28;;
80322;SDS011;69636;52.372;13.610;2023-07-22T00:19:02;6.57;;;5.10;;
80322;SDS011;69636;52.372;13.610;2023-07-22T00:21:30;6.82;;;5.28;;
80322;SDS011;69636;52.372;13.610;2023-07-22T00:23:57;6.57;;;5.70;;
80322;SDS011;69636;52.372;13.610;2023-07-22T00:26:24;6.18;;;5.18;;
80322;SDS011;69636;52.372;13.610;2023-07-22T00:28:53;6.97;;;5.03;;
80322;SDS011;69636;52.372;13.610;2023-07-22T00:31:21;7.28;;;5.80;;
80322;SDS011;69636;52.372;13.610;2023-07-22T00:33:48;7.75;;;7.03;;
80322;SDS011;69636;52.372;13.610;2023-07-22T00:36:15;7.05;;;6.32;;
80322;SDS011;69636;52.372;13.610;2023-07-22T00:38:42;7.38;;;6.30;;
80322;SDS011;69636;52.372;13.610;2023-07-22T00:41:10;7.55;;;6.00;;
80322;SDS011;69636;52.372;13.610;2023-07-22T00:43:37;6.90;;;6.20;;
80322;SDS011;69636;52.372;13.610;2023-07-22T00:46:06;7.47;;;6.78;;
80322;SDS011;69636;52.372;13.610;2023-07-22T00:48:33;8.32;;;7.00;;
80322;SDS011;69636;52.372;13.610;2023-07-22T00:51:00;7.15;;;6.30;;
80322;SDS011;69636;52.372;13.610;2023-07-22T00:53:28;7.28;;;6.13;;
80322;SDS011;69636;52.372;13.610;2023-07-22T00:55:55;8.43;;;6.90;;
80322;SDS011;69636;52.372;13.610;2023-07-22T00:58:22;8.25;;;6.05;;
80322;SDS011;69636;52.372;13.610;2023-07-22T01:00:49;7.63;;;6.72;;
80322;SDS011;69636;52.372;13.610;2023-07-22T01:03:18;7.60;;;6.72;;
80322;SDS011;69636;52.372;13.610;2023-07-22T01:05:46;8.95;;;7.03;;
80322;SDS011;69636;52.372;13.610;2023-07-22T01:08:15;8.20;;;6.88;;
80322;SDS011;69636;52.372;13.610;2023-07-22T01:10:43;8.85;;;7.63;;
80322;SDS011;69636;52.372;13.610;2023-07-22T01:13:10;9.35;;;8.35;;
80322;SDS011;69636;52.372;13.610;2023-07-22T01:15:37;10.63;;;9.52;;
80322;SDS011;69636;52.372;13.610;2023-07-22T01:18:05;10.95;;;8.98;;
80322;SDS011;69636;52.372;13.610;2023-07-22T01:20:35;11.02;;;8.52;;
80322;SDS011;69636;52.372;13.610;2023-07-22T01:23:04;11.07;;;9.88;;
80322;SDS011;69636;52.372;13.610;2023-07-22T01:25:32;9.85;;;8.77;;
80322;SDS011;69636;52.372;13.610;2023-07-22T01:27:59;11.90;;;10.02;;
80322;SDS011;69636;52.372;13.610;2023-07-22T01:30:26;11.75;;;10.07;;
80322;SDS011;69636;52.372;13.610;2023-07-22T01:32:54;12.15;;;8.52;;
80322;SDS011;69636;52.372;13.610;2023-07-22T01:35:21;14.85;;;8.98;;
80322;SDS011;69636;52.372;13.610;2023-07-22T01:37:49;13.68;;;8.85;;
80322;SDS011;69636;52.372;13.610;2023-07-22T01:40:17;12.60;;;10.23;;
80322;SDS011;69636;52.372;13.610;2023-07-22T01:42:44;15.15;;;11.23;;
80322;SDS011;69636;52.372;13.610;2023-07-22T01:45:12;13.80;;;11.30;;
80322;SDS011;69636;52.372;13.610;2023-07-22T01:47:39;16.92;;;9.90;;
80322;SDS011;69636;52.372;13.610;2023-07-22T01:50:07;16.20;;;12.23;;
80322;SDS011;69636;52.372;13.610;2023-07-22T01:52:35;13.48;;;10.13;;
80322;SDS011;69636;52.372;13.610;2023-07-22T01:55:02;13.88;;;12.48;;
80322;SDS011;69636;52.372;13.610;2023-07-22T01:57:32;12.63;;;10.90;;
80322;SDS011;69636;52.372;13.610;2023-07-22T01:59:59;12.60;;;11.02;;
80322;SDS011;69636;52.372;13.610;2023-07-22T02:02:26;12.88;;;9.15;;
80322;SDS011;69636;52.372;13.610;2023-07-22T02:04:54;13.45;;;9.63;;
80322;SDS011;69636;52.372;13.610;2023-07-22T02:07:21;13.55;;;10.68;;
80322;SDS011;69636;52.372;13.610;2023-07-22T02:09:49;13.35;;;10.88;;
80322;SDS011;69636;52.372;13.610;2023-07-22T02:12:16;12.25;;;10.00;;
80322;SDS011;69636;52.372;13.610;2023-07-22T02:14:45;14.48;;;10.65;;
80322;SDS011;69636;52.372;13.610;2023-07-22T02:17:12;13.55;;;10.13;;
80322;SDS011;69636;52.372;13.610;2023-07-22T02:19:39;13.43;;;10.15;;
80322;SDS011;69636;52.372;13.610;2023-07-22T02:22:07;14.32;;;10.43;;
80322;SDS011;69636;52.372;13.610;2023-07-22T02:24:34;13.43;;;10.35;;
80322;SDS011;69636;52.372;13.610;2023-07-22T02:27:01;13.07;;;9.85;;
80322;SDS011;69636;52.372;13.610;2023-07-22T02:29:29;13.93;;;10.85;;
80322;SDS011;69636;52.372;13.610;2023-07-22T02:31:57;13.60;;;11.88;;
80322;SDS011;69636;52.372;13.610;2023-07-22T02:34:25;13.68;;;10.05;;
80322;SDS011;69636;52.372;13.610;2023-07-22T02:36:52;13.07;;;10.27;;
80322;SDS011;69636;52.372;13.610;2023-07-22T02:39:19;15.20;;;10.48;;
80322;SDS011;69636;52.372;13.610;2023-07-22T02:41:47;12.30;;;9.85;;
80322;SDS011;69636;52.372;13.610;2023-07-22T02:44:14;12.07;;;10.23;;
80322;SDS011;69636;52.372;13.610;2023-07-22T02:46:41;11.77;;;9.48;;
80322;SDS011;69636;52.372;13.610;2023-07-22T02:49:10;12.63;;;11.27;;
80322;SDS011;69636;52.372;13.610;2023-07-22T02:51:37;11.27;;;10.10;;
80322;SDS011;69636;52.372;13.610;2023-07-22T02:54:04;12.18;;;9.65;;
80322;SDS011;69636;52.372;13.610;2023-07-22T02:56:32;13.63;;;10.45;;
80322;SDS011;69636;52.372;13.610;2023-07-22T02:58:59;11.32;;;10.00;;
80322;SDS011;69636;52.372;13.610;2023-07-22T03:01:26;10.65;;;8.70;;
80322;SDS011;69636;52.372;13.610;2023-07-22T03:03:54;9.80;;;8.80;;
80322;SDS011;69636;52.372;13.610;2023-07-22T03:06:22;10.63;;;8.95;;
80322;SDS011;69636;52.372;13.610;2023-07-22T03:08:50;10.38;;;8.70;;
80322;SDS011;69636;52.372;13.610;2023-07-22T03:11:17;12.88;;;9.65;;
80322;SDS011;69636;52.372;13.610;2023-07-22T03:13:44;10.00;;;8.55;;
80322;SDS011;69636;52.372;13.610;2023-07-22T03:16:12;9.85;;;8.80;;
80322;SDS011;69636;52.372;13.610;2023-07-22T03:18:39;9.98;;;8.98;;
80322;SDS011;69636;52.372;13.610;2023-07-22T03:21:06;13.05;;;10.55;;
80322;SDS011;69636;52.372;13.610;2023-07-22T03:23:35;9.48;;;8.48;;
80322;SDS011;69636;52.372;13.610;2023-07-22T03:26:02;9.85;;;8.55;;
80322;SDS011;69636;52.372;13.610;2023-07-22T03:28:30;10.38;;;9.02;;
80322;SDS011;69636;52.372;13.610;2023-07-22T03:30:57;11.35;;;10.25;;
80322;SDS011;69636;52.372;13.610;2023-07-22T03:33:24;8.95;;;7.15;;
80322;SDS011;69636;52.372;13.610;2023-07-22T03:35:52;11.30;;;9.38;;
80322;SDS011;69636;52.372;13.610;2023-07-22T03:38:19;10.10;;;8.82;;
80322;SDS011;69636;52.372;13.610;2023-07-22T03:40:47;9.52;;;8.50;;
80322;SDS011;69636;52.372;13.610;2023-07-22T03:43:15;10.35;;;8.98;;
80322;SDS011;69636;52.372;13.610;2023-07-22T03:45:42;10.07;;;8.05;;
80322;SDS011;69636;52.372;13.610;2023-07-22T03:48:10;10.50;;;9.05;;
80322;SDS011;69636;52.372;13.610;2023-07-22T03:50:37;11.32;;;9.18;;
80322;SDS011;69636;52.372;13.610;2023-07-22T03:53:04;10.43;;;9.35;;
80322;SDS011;69636;52.372;13.610;2023-07-22T03:55:32;8.77;;;7.88;;
80322;SDS011;69636;52.372;13.610;2023-07-22T03:58:00;9.60;;;8.70;;
80322;SDS011;69636;52.372;13.610;2023-07-22T04:00:28;9.23;;;7.85;;
80322;SDS011;69636;52.372;13.610;2023-07-22T04:02:55;9.45;;;8.18;;
80322;SDS011;69636;52.372;13.610;2023-07-22T04:05:22;9.27;;;8.38;;
80322;SDS011;69636;52.372;13.610;2023-07-22T04:07:50;9.52;;;8.63;;
80322;SDS011;69636;52.372;13.610;2023-07-22T04:10:17;8.48;;;7.68;;
80322;SDS011;69636;52.372;13.610;2023-07-22T04:12:44;9.02;;;7.75;;
80322;SDS011;69636;52.372;13.610;2023-07-22T04:15:13;10.80;;;8.50;;
80322;SDS011;69636;52.372;13.610;2023-07-22T04:17:40;9.13;;;7.53;;
80322;SDS011;69636;52.372;13.610;2023-07-22T04:20:08;9.68;;;8.65;;
80322;SDS011;69636;52.372;13.610;2023-07-22T04:22:36;8.93;;;8.02;;
80322;SDS011;69636;52.372;13.610;2023-07-22T04:25:04;8.68;;;6.60;;
80322;SDS011;69636;52.372;13.610;2023-07-22T04:27:32;10.40;;;8.85;;
80322;SDS011;69636;52.372;13.610;2023-07-22T04:30:00;9.65;;;8.70;;
80322;SDS011;69636;52.372;13.610;2023-07-22T04:32:28;9.90;;;7.47;;
80322;SDS011;69636;52.372;13.610;2023-07-22T04:34:56;8.40;;;7.60;;
80322;SDS011;69636;52.372;13.610;2023-07-22T04:37:23;9.27;;;8.27;;
80322;SDS011;69636;52.372;13.610;2023-07-22T04:39:50;9.25;;;7.72;;
80322;SDS011;69636;52.372;13.610;2023-07-22T04:42:17;8.82;;;7.88;;
80322;SDS011;69636;52.372;13.610;2023-07-22T04:44:45;9.70;;;7.47;;
80322;SDS011;69636;52.372;13.610;2023-07-22T04:47:12;7.57;;;6.78;;
80322;SDS011;69636;52.372;13.610;2023-07-22T04:49:40;8.85;;;7.38;;
80322;SDS011;69636;52.372;13.610;2023-07-22T04:52:08;8.52;;;6.90;;
80322;SDS011;69636;52.372;13.610;2023-07-22T04:54:35;8.32;;;6.38;;
80322;SDS011;69636;52.372;13.610;2023-07-22T04:57:02;6.78;;;5.63;;
80322;SDS011;69636;52.372;13.610;2023-07-22T04:59:30;7.18;;;6.03;;
80322;SDS011;69636;52.372;13.610;2023-07-22T05:01:58;7.47;;;6.03;;
80322;SDS011;69636;52.372;13.610;2023-07-22T05:04:25;8.15;;;5.70;;
80322;SDS011;69636;52.372;13.610;2023-07-22T05:06:53;7.10;;;5.88;;
80322;SDS011;69636;52.372;13.610;2023-07-22T05:09:21;7.75;;;6.47;;
80322;SDS011;69636;52.372;13.610;2023-07-22T05:11:48;6.75;;;5.55;;
80322;SDS011;69636;52.372;13.610;2023-07-22T05:14:15;7.55;;;6.50;;
80322;SDS011;69636;52.372;13.610;2023-07-22T05:16:43;7.15;;;5.45;;
80322;SDS011;69636;52.372;13.610;2023-07-22T05:19:10;7.57;;;5.72;;
80322;SDS011;69636;52.372;13.610;2023-07-22T05:21:37;8.10;;;6.10;;
80322;SDS011;69636;52.372;13.610;2023-07-22T05:24:06;7.20;;;5.55;;
80322;SDS011;69636;52.372;13.610;2023-07-22T05:26:33;7.25;;;5.80;;
80322;SDS011;69636;52.372;13.610;2023-07-22T05:29:01;6.80;;;5.72;;
80322;SDS011;69636;52.372;13.610;2023-07-22T05:31:28;7.78;;;6.72;;
80322;SDS011;69636;52.372;13.610;2023-07-22T05:33:55;7.95;;;5.32;;
80322;SDS011;69636;52.372;13.610;2023-07-22T05:36:22;7.65;;;6.10;;
80322;SDS011;69636;52.372;13.610;2023-07-22T05:38:50;7.03;;;5.18;;
80322;SDS011;69636;52.372;13.610;2023-07-22T05:41:18;7.63;;;4.75;;
80322;SDS011;69636;52.372;13.610;2023-07-22T05:43:46;7.00;;;5.63;;
80322;SDS011;69636;52.372;13.610;2023-07-22T05:46:13;8.38;;;5.53;;
80322;SDS011;69636;52.372;13.610;2023-07-22T05:48:40;7.70;;;5.45;;
80322;SDS011;69636;52.372;13.610;2023-07-22T05:51:08;6.50;;;5.53;;
80322;SDS011;69636;52.372;13.610;2023-07-22T05:53:36;7.80;;;5.80;;
80322;SDS011;69636;52.372;13.610;2023-07-22T05:56:03;8.02;;;5.43;;
80322;SDS011;69636;52.372;13.610;2023-07-22T05:58:32;8.50;;;5.53;;
80322;SDS011;69636;52.372;13.610;2023-07-22T06:00:59;7.65;;;5.68;;
80322;SDS011;69636;52.372;13.610;2023-07-22T06:03:27;6.13;;;4.97;;
80322;SDS011;69636;52.372;13.610;2023-07-22T06:05:54;10.32;;;6.20;;
80322;SDS011;69636;52.372;13.610;2023-07-22T06:08:21;8.65;;;6.15;;
80322;SDS011;69636;52.372;13.610;2023-07-22T06:10:49;7.15;;;4.65;;
80322;SDS011;69636;52.372;13.610;2023-07-22T06:13:16;8.60;;;6.65;;
80322;SDS011;69636;52.372;13.610;2023-07-22T06:15:45;9.15;;;6.47;;
80322;SDS011;69636;52.372;13.610;2023-07-22T06:18:12;10.93;;;6.28;;
80322;SDS011;69636;52.372;13.610;2023-07-22T06:20:39;8.23;;;5.97;;
80322;SDS011;69636;52.372;13.610;2023-07-22T06:23:07;8.30;;;6.22;;
80322;SDS011;69636;52.372;13.610;2023-07-22T06:25:34;10.13;;;6.65;;
80322;SDS011;69636;52.372;13.610;2023-07-22T06:28:01;7.00;;;5.13;;
80322;SDS011;69636;52.372;13.610;2023-07-22T06:30:29;8.77;;;5.90;;
80322;SDS011;69636;52.372;13.610;2023-07-22T06:32:57;9.43;;;6.35;;
80322;SDS011;69636;52.372;13.610;2023-07-22T06:35:25;8.32;;;6.05;;
80322;SDS011;69636;52.372;13.610;2023-07-22T06:37:52;8.82;;;6.45;;
80322;SDS011;69636;52.372;13.610;2023-07-22T06:40:19;8.63;;;6.05;;
80322;SDS011;69636;52.372;13.610;2023-07-22T06:42:47;7.35;;;5.40;;
80322;SDS011;69636;52.372;13.610;2023-07-22T06:45:14;7.88;;;5.82;;
80322;SDS011;69636;52.372;13.610;2023-07-22T06:47:41;11.68;;;6.07;;
80322;SDS011;69636;52.372;13.610;2023-07-22T06:50:10;6.78;;;5.57;;
80322;SDS011;69636;52.372;13.610;2023-07-22T06:52:37;6.05;;;3.65;;
80322;SDS011;69636;52.372;13.610;2023-07-22T06:55:05;8.55;;;4.70;;
80322;SDS011;69636;52.372;13.610;2023-07-22T06:57:33;7.45;;;5.47;;
80322;SDS011;69636;52.372;13.610;2023-07-22T07:00:00;5.90;;;3.88;;
80322;SDS011;69636;52.372;13.610;2023-07-22T07:02:28;8.15;;;4.75;;
80322;SDS011;69636;52.372;13.610;2023-07-22T07:04:55;7.38;;;4.50;;
80322;SDS011;69636;52.372;13.610;2023-07-22T07:07:24;6.32;;;4.07;;
80322;SDS011;69636;52.372;13.610;2023-07-22T07:09:51;5.07;;;3.45;;
80322;SDS011;69636;52.372;13.610;2023-07-22T07:12:18;5.82;;;3.67;;
80322;SDS011;69636;52.372;13.610;2023-07-22T07:14:46;5.72;;;3.65;;
80322;SDS011;69636;52.372;13.610;2023-07-22T07:17:17;5.22;;;3.22;;
80322;SDS011;69636;52.372;13.610;2023-07-22T07:19:44;5.78;;;3.85;;
80322;SDS011;69636;52.372;13.610;2023-07-22T07:22:12;5.97;;;3.53;;
80322;SDS011;69636;52.372;13.610;2023-07-22T07:24:40;6.28;;;3.60;;
80322;SDS011;69636;52.372;13.610;2023-07-22T07:27:09;6.30;;;3.38;;
80322;SDS011;69636;52.372;13.610;2023-07-22T07:29:36;4.93;;;3.05;;
80322;SDS011;69636;52.372;13.610;2023-07-22T07:32:20;5.07;;;2.80;;
80322;SDS011;69636;52.372;13.610;2023-07-22T07:34:51;4.45;;;2.80;;
80322;SDS011;69636;52.372;13.610;2023-07-22T07:37:18;5.45;;;3.20;;
80322;SDS011;69636;52.372;13.610;2023-07-22T07:39:46;5.70;;;4.78;;
80322;SDS011;69636;52.372;13.610;2023-07-22T07:42:14;5.40;;;2.67;;
80322;SDS011;69636;52.372;13.610;2023-07-22T07:44:41;4.82;;;2.80;;
80322;SDS011;69636;52.372;13.610;2023-07-22T07:47:08;4.35;;;2.47;;
80322;SDS011;69636;52.372;13.610;2023-07-22T07:49:35;5.43;;;2.95;;
80322;SDS011;69636;52.372;13.610;2023-07-22T07:52:03;5.75;;;3.10;;
80322;SDS011;69636;52.372;13.610;2023-07-22T07:54:31;6.80;;;3.35;;
80322;SDS011;69636;52.372;13.610;2023-07-22T07:57:00;5.82;;;2.80;;
80322;SDS011;69636;52.372;13.610;2023-07-22T07:59:28;7.97;;;3.60;;
80322;SDS011;69636;52.372;13.610;2023-07-22T08:01:55;5.35;;;3.35;;
80322;SDS011;69636;52.372;13.610;2023-07-22T08:04:22;4.95;;;3.00;;
80322;SDS011;69636;52.372;13.610;2023-07-22T08:06:49;5.80;;;2.50;;
80322;SDS011;69636;52.372;13.610;2023-07-22T08:09:17;4.45;;;2.40;;
80322;SDS011;69636;52.372;13.610;2023-07-22T08:11:44;5.32;;;2.63;;
80322;SDS011;69636;52.372;13.610;2023-07-22T08:14:13;4.82;;;2.08;;
80322;SDS011;69636;52.372;13.610;2023-07-22T08:16:40;4.68;;;2.97;;
80322;SDS011;69636;52.372;13.610;2023-07-22T08:19:07;4.97;;;3.15;;
80322;SDS011;69636;52.372;13.610;2023-07-22T08:21:35;6.28;;;3.22;;
80322;SDS011;69636;52.372;13.610;2023-07-22T08:24:02;5.90;;;3.03;;
80322;SDS011;69636;52.372;13.610;2023-07-22T08:28:57;6.20;;;3.47;;
80322;SDS011;69636;52.372;13.610;2023-07-22T08:31:25;5.57;;;2.50;;
80322;SDS011;69636;52.372;13.610;2023-07-22T08:33:54;6.22;;;3.38;;
80322;SDS011;69636;52.372;13.610;2023-07-22T08:36:21;5.25;;;2.65;;
80322;SDS011;69636;52.372;13.610;2023-07-22T08:38:49;5.60;;;3.55;;
80322;SDS011;69636;52.372;13.610;2023-07-22T08:41:16;6.65;;;2.92;;
80322;SDS011;69636;52.372;13.610;2023-07-22T08:43:44;5.85;;;3.10;;
80322;SDS011;69636;52.372;13.610;2023-07-22T08:46:12;5.57;;;3.38;;
80322;SDS011;69636;52.372;13.610;2023-07-22T08:48:42;5.75;;;3.55;;
80322;SDS011;69636;52.372;13.610;2023-07-22T08:51:15;4.63;;;2.72;;
80322;SDS011;69636;52.372;13.610;2023-07-22T08:53:44;4.80;;;3.10;;
80322;SDS011;69636;52.372;13.610;2023-07-22T08:56:26;6.15;;;2.75;;
80322;SDS011;69636;52.372;13.610;2023-07-22T08:58:55;4.72;;;2.85;;
80322;SDS011;69636;52.372;13.610;2023-07-22T09:01:23;8.13;;;5.25;;
80322;SDS011;69636;52.372;13.610;2023-07-22T09:03:52;26.90;;;19.27;;
80322;SDS011;69636;52.372;13.610;2023-07-22T09:06:20;5.57;;;2.65;;
80322;SDS011;69636;52.372;13.610;2023-07-22T09:08:48;5.45;;;2.80;;
80322;SDS011;69636;52.372;13.610;2023-07-22T09:11:15;6.47;;;3.00;;
80322;SDS011;69636;52.372;13.610;2023-07-22T09:13:43;6.40;;;3.17;;
80322;SDS011;69636;52.372;13.610;2023-07-22T09:16:11;4.85;;;2.83;;
80322;SDS011;69636;52.372;13.610;2023-07-22T09:18:41;4.35;;;2.38;;
80322;SDS011;69636;52.372;13.610;2023-07-22T09:21:12;5.82;;;2.60;;
80322;SDS011;69636;52.372;13.610;2023-07-22T09:23:40;5.13;;;3.17;;
80322;SDS011;69636;52.372;13.610;2023-07-22T09:26:08;5.00;;;2.45;;
80322;SDS011;69636;52.372;13.610;2023-07-22T09:28:47;4.72;;;2.50;;
80322;SDS011;69636;52.372;13.610;2023-07-22T09:31:18;4.88;;;2.10;;
80322;SDS011;69636;52.372;13.610;2023-07-22T09:33:46;5.35;;;2.78;;
80322;SDS011;69636;52.372;13.610;2023-07-22T09:36:16;6.18;;;2.72;;
80322;SDS011;69636;52.372;13.610;2023-07-22T09:38:44;5.50;;;2.13;;
80322;SDS011;69636;52.372;13.610;2023-07-22T09:41:11;5.25;;;2.03;;
80322;SDS011;69636;52.372;13.610;2023-07-22T09:43:38;4.55;;;2.30;;
80322;SDS011;69636;52.372;13.610;2023-07-22T09:46:06;5.30;;;2.28;;
80322;SDS011;69636;52.372;13.610;2023-07-22T09:48:52;4.65;;;2.72;;
80322;SDS011;69636;52.372;13.610;2023-07-22T09:51:21;7.18;;;3.42;;
80322;SDS011;69636;52.372;13.610;2023-07-22T09:54:00;4.22;;;2.50;;
80322;SDS011;69636;52.372;13.610;2023-07-22T09:56:28;4.25;;;2.42;;
80322;SDS011;69636;52.372;13.610;2023-07-22T10:01:25;3.92;;;2.50;;
80322;SDS011;69636;52.372;13.610;2023-07-22T10:03:55;5.00;;;3.10;;
80322;SDS011;69636;52.372;13.610;2023-07-22T10:06:26;5.20;;;2.83;;
80322;SDS011;69636;52.372;13.610;2023-07-22T10:08:55;4.45;;;2.60;;
80322;SDS011;69636;52.372;13.610;2023-07-22T10:11:23;3.80;;;1.90;;
80322;SDS011;69636;52.372;13.610;2023-07-22T10:13:54;5.45;;;2.25;;
80322;SDS011;69636;52.372;13.610;2023-07-22T10:16:23;5.25;;;3.28;;
80322;SDS011;69636;52.372;13.610;2023-07-22T10:18:51;3.80;;;1.90;;
80322;SDS011;69636;52.372;13.610;2023-07-22T10:21:20;4.70;;;2.22;;
80322;SDS011;69636;52.372;13.610;2023-07-22T10:23:50;5.10;;;2.28;;
80322;SDS011;69636;52.372;13.610;2023-07-22T10:26:19;4.72;;;2.53;;
80322;SDS011;69636;52.372;13.610;2023-07-22T10:29:07;3.75;;;1.95;;
80322;SDS011;69636;52.372;13.610;2023-07-22T10:31:36;6.07;;;2.38;;
80322;SDS011;69636;52.372;13.610;2023-07-22T10:34:03;5.65;;;2.67;;
80322;SDS011;69636;52.372;13.610;2023-07-22T10:39:02;4.57;;;1.95;;
80322;SDS011;69636;52.372;13.610;2023-07-22T10:41:31;4.07;;;1.70;;
80322;SDS011;69636;52.372;13.610;2023-07-22T10:43:59;4.72;;;2.28;;
80322;SDS011;69636;52.372;13.610;2023-07-22T10:49:07;4.30;;;1.98;;
80322;SDS011;69636;52.372;13.610;2023-07-22T10:51:36;4.68;;;2.13;;
80322;SDS011;69636;52.372;13.610;2023-07-22T10:56:40;4.30;;;2.30;;
80322;SDS011;69636;52.372;13.610;2023-07-22T10:59:09;5.38;;;3.33;;
80322;SDS011;69636;52.372;13.610;2023-07-22T11:01:37;4.00;;;2.47;;
80322;SDS011;69636;52.372;13.610;2023-07-22T11:04:06;5.40;;;2.40;;
80322;SDS011;69636;52.372;13.610;2023-07-22T11:06:36;6.32;;;3.05;;
80322;SDS011;69636;52.372;13.610;2023-07-22T11:09:05;5.22;;;2.40;;
80322;SDS011;69636;52.372;13.610;2023-07-22T11:11:37;4.25;;;2.15;;
80322;SDS011;69636;52.372;13.610;2023-07-22T11:14:15;4.30;;;2.28;;
80322;SDS011;69636;52.372;13.610;2023-07-22T11:16:44;5.22;;;2.45;;
80322;SDS011;69636;52.372;13.610;2023-07-22T11:19:13;5.13;;;2.40;;
80322;SDS011;69636;52.372;13.610;2023-07-22T11:21:41;4.95;;;2.38;;
80322;SDS011;69636;52.372;13.610;2023-07-22T11:24:08;5.28;;;2.17;;
80322;SDS011;69636;52.372;13.610;2023-07-22T11:29:09;4.75;;;2.65;;
80322;SDS011;69636;52.372;13.610;2023-07-22T11:31:38;6.25;;;3.03;;
80322;SDS011;69636;52.372;13.610;2023-07-22T11:34:06;4.53;;;2.03;;
80322;SDS011;69636;52.372;13.610;2023-07-22T11:36:33;5.85;;;2.53;;
80322;SDS011;69636;52.372;13.610;2023-07-22T11:39:01;5.03;;;2.50;;
80322;SDS011;69636;52.372;13.610;2023-07-22T11:41:29;5.03;;;2.28;;
80322;SDS011;69636;52.372;13.610;2023-07-22T11:43:58;4.50;;;2.25;;
80322;SDS011;69636;52.372;13.610;2023-07-22T11:46:26;4.25;;;2.47;;
80322;SDS011;69636;52.372;13.610;2023-07-22T11:48:54;5.13;;;2.90;;
80322;SDS011;69636;52.372;13.610;2023-07-22T11:51:23;4.28;;;2.28;;
80322;SDS011;69636;52.372;13.610;2023-07-22T11:53:53;5.00;;;2.90;;
80322;SDS011;69636;52.372;13.610;2023-07-22T11:56:22;4.43;;;2.42;;
80322;SDS011;69636;52.372;13.610;2023-07-22T11:58:50;5.63;;;2.53;;
80322;SDS011;69636;52.372;13.610;2023-07-22T12:01:20;5.28;;;2.63;;
80322;SDS011;69636;52.372;13.610;2023-07-22T12:03:47;4.60;;;2.53;;
80322;SDS011;69636;52.372;13.610;2023-07-22T12:06:16;5.82;;;2.80;;
80322;SDS011;69636;52.372;13.610;2023-07-22T12:08:43;4.72;;;2.50;;
80322;SDS011;69636;52.372;13.610;2023-07-22T12:11:18;4.57;;;2.30;;
80322;SDS011;69636;52.372;13.610;2023-07-22T12:13:46;4.90;;;2.70;;
80322;SDS011;69636;52.372;13.610;2023-07-22T12:16:14;5.43;;;2.47;;
80322;SDS011;69636;52.372;13.610;2023-07-22T12:18:43;5.00;;;2.67;;
80322;SDS011;69636;52.372;13.610;2023-07-22T12:21:11;5.43;;;2.90;;
80322;SDS011;69636;52.372;13.610;2023-07-22T12:26:06;5.38;;;2.42;;
80322;SDS011;69636;52.372;13.610;2023-07-22T12:28:33;4.35;;;1.92;;
80322;SDS011;69636;52.372;13.610;2023-07-22T12:33:28;4.93;;;2.25;;
80322;SDS011;69636;52.372;13.610;2023-07-22T12:35:58;5.40;;;2.70;;
80322;SDS011;69636;52.372;13.610;2023-07-22T12:38:25;4.53;;;2.40;;
80322;SDS011;69636;52.372;13.610;2023-07-22T12:40:53;4.80;;;2.58;;
80322;SDS011;69636;52.372;13.610;2023-07-22T12:43:20;5.75;;;2.25;;
80322;SDS011;69636;52.372;13.610;2023-07-22T12:45:49;5.65;;;2.72;;
80322;SDS011;69636;52.372;13.610;2023-07-22T12:48:17;4.38;;;2.35;;
80322;SDS011;69636;52.372;13.610;2023-07-22T12:50:46;5.20;;;2.60;;
80322;SDS011;69636;52.372;13.610;2023-07-22T12:53:16;4.88;;;2.72;;
80322;SDS011;69636;52.372;13.610;2023-07-22T12:55:43;6.22;;;3.03;;
80322;SDS011;69636;52.372;13.610;2023-07-22T12:58:10;4.47;;;2.78;;
80322;SDS011;69636;52.372;13.610;2023-07-22T13:00:38;4.65;;;2.60;;
80322;SDS011;69636;52.372;13.610;2023-07-22T13:03:05;5.57;;;2.38;;
80322;SDS011;69636;52.372;13.610;2023-07-22T13:05:32;4.47;;;2.50;;
80322;SDS011;69636;52.372;13.610;2023-07-22T13:07:59;5.30;;;2.67;;
80322;SDS011;69636;52.372;13.610;2023-07-22T13:10:28;4.40;;;2.08;;
80322;SDS011;69636;52.372;13.610;2023-07-22T13:12:56;4.85;;;2.60;;
80322;SDS011;69636;52.372;13.610;2023-07-22T13:15:24;4.43;;;2.25;;
80322;SDS011;69636;52.372;13.610;2023-07-22T13:17:51;4.38;;;2.53;;
80322;SDS011;69636;52.372;13.610;2023-07-22T13:20:18;5.47;;;2.42;;
80322;SDS011;69636;52.372;13.610;2023-07-22T13:22:47;4.22;;;2.45;;
80322;SDS011;69636;52.372;13.610;2023-07-22T13:25:15;4.90;;;2.55;;
80322;SDS011;69636;52.372;13.610;2023-07-22T13:27:43;6.35;;;2.95;;
80322;SDS011;69636;52.372;13.610;2023-07-22T13:30:11;4.75;;;2.45;;
80322;SDS011;69636;52.372;13.610;2023-07-22T13:32:38;5.38;;;2.50;;
80322;SDS011;69636;52.372;13.610;2023-07-22T13:35:07;4.65;;;2.50;;
80322;SDS011;69636;52.372;13.610;2023-07-22T13:37:35;4.60;;;2.65;;
80322;SDS011;69636;52.372;13.610;2023-07-22T13:40:03;5.78;;;3.45;;
80322;SDS011;69636;52.372;13.610;2023-07-22T13:42:32;5.05;;;2.85;;
80322;SDS011;69636;52.372;13.610;2023-07-22T13:45:00;4.63;;;2.50;;
80322;SDS011;69636;52.372;13.610;2023-07-22T13:47:28;4.60;;;2.60;;
80322;SDS011;69636;52.372;13.610;2023-07-22T13:49:55;4.57;;;3.03;;
80322;SDS011;69636;52.372;13.610;2023-07-22T13:52:22;5.38;;;2.65;;
80322;SDS011;69636;52.372;13.610;2023-07-22T13:54:50;5.68;;;3.13;;
80322;SDS011;69636;52.372;13.610;2023-07-22T13:57:17;4.57;;;2.45;;
80322;SDS011;69636;52.372;13.610;2023-07-22T13:59:44;6.43;;;3.08;;
80322;SDS011;69636;52.372;13.610;2023-07-22T14:02:13;6.22;;;3.03;;
80322;SDS011;69636;52.372;13.610;2023-07-22T14:04:40;7.20;;;2.50;;
80322;SDS011;69636;52.372;13.610;2023-07-22T14:07:08;5.95;;;3.10;;
80322;SDS011;69636;52.372;13.610;2023-07-22T14:09:35;4.38;;;2.45;;
80322;SDS011;69636;52.372;13.610;2023-07-22T14:12:03;5.47;;;2.55;;
80322;SDS011;69636;52.372;13.610;2023-07-22T14:14:31;4.95;;;2.97;;
80322;SDS011;69636;52.372;13.610;2023-07-22T14:16:58;28.38;;;20.92;;
80322;SDS011;69636;52.372;13.610;2023-07-22T14:19:27;15.63;;;10.43;;
80322;SDS011;69636;52.372;13.610;2023-07-22T14:21:54;4.88;;;2.53;;
80322;SDS011;69636;52.372;13.610;2023-07-22T14:24:21;4.72;;;2.50;;
80322;SDS011;69636;52.372;13.610;2023-07-22T14:26:49;4.82;;;2.55;;
80322;SDS011;69636;52.372;13.610;2023-07-22T14:29:17;5.03;;;2.78;;
80322;SDS011;69636;52.372;13.610;2023-07-22T14:31:44;5.20;;;2.63;;
80322;SDS011;69636;52.372;13.610;2023-07-22T14:34:11;5.13;;;2.58;;
80322;SDS011;69636;52.372;13.610;2023-07-22T14:36:40;5.10;;;3.10;;
80322;SDS011;69636;52.372;13.610;2023-07-22T14:39:09;4.53;;;2.38;;
80322;SDS011;69636;52.372;13.610;2023-07-22T14:41:36;4.70;;;2.90;;
80322;SDS011;69636;52.372;13.610;2023-07-22T14:44:04;4.40;;;2.35;;
80322;SDS011;69636;52.372;13.610;2023-07-22T14:46:31;5.00;;;2.88;;
80322;SDS011;69636;52.372;13.610;2023-07-22T14:48:58;5.72;;;3.05;;
80322;SDS011;69636;52.372;13.610;2023-07-22T14:51:26;5.57;;;3.00;;
80322;SDS011;69636;52.372;13.610;2023-07-22T14:53:55;5.15;;;2.65;;
80322;SDS011;69636;52.372;13.610;2023-07-22T14:56:22;5.03;;;2.60;;